sensor_id;sensor_type;location;lat;lon;timestamp;temperature;humidity
20568;DHT22;10442;49.932;11.592;2023-06-26T00:00:07;22.00;63.30
20568;DHT22;10442;49.932;11.592;2023-06-26T00:02:35;21.90;63.20
20568;DHT22;10442;49.932;11.592;2023-06-26T00:05:02;21.90;63.90
20568;DHT22;10442;49.932;11.592;2023-06-26T00:07:30;21.90;63.20
20568;DHT22;10442;49.932;11.592;2023-06-26T00:09:58;21.90;63.10
20568;DHT22;10442;49.932;11.592;2023-06-26T00:12:26;21.80;62.80
20568;DHT22;10442;49.932;11.592;2023-06-26T00:14:53;21.80;62.80
20568;DHT22;10442;49.932;11.592;2023-06-26T00:17:21;21.70;62.90
20568;DHT22;10442;49.932;11.592;2023-06-26T00:19:49;21.70;62.90
20568;DHT22;10442;49.932;11.592;2023-06-26T00:22:17;21.70;62.80
20568;DHT22;10442;49.932;11.592;2023-06-26T00:24:45;21.70;62.80
20568;DHT22;10442;49.932;11.592;2023-06-26T00:27:13;21.70;62.80
20568;DHT22;10442;49.932;11.592;2023-06-26T00:29:40;21.60;62.90
20568;DHT22;10442;49.932;11.592;2023-06-26T00:32:08;21.60;63.20
20568;DHT22;10442;49.932;11.592;2023-06-26T00:34:35;21.50;63.30
20568;DHT22;10442;49.932;11.592;2023-06-26T00:37:02;21.50;63.50
20568;DHT22;10442;49.932;11.592;2023-06-26T00:39:30;21.50;64.00
20568;DHT22;10442;49.932;11.592;2023-06-26T00:41:58;21.50;63.70
20568;DHT22;10442;49.932;11.592;2023-06-26T00:44:25;21.40;63.90
20568;DHT22;10442;49.932;11.592;2023-06-26T00:46:53;21.40;64.00
20568;DHT22;10442;49.932;11.592;2023-06-26T00:49:20;21.40;64.00
20568;DHT22;10442;49.932;11.592;2023-06-26T00:51:48;21.30;63.80
20568;DHT22;10442;49.932;11.592;2023-06-26T00:54:16;21.30;64.00
20568;DHT22;10442;49.932;11.592;2023-06-26T00:56:48;21.30;64.10
20568;DHT22;10442;49.932;11.592;2023-06-26T00:59:15;21.20;64.30
20568;DHT22;10442;49.932;11.592;2023-06-26T01:01:43;21.20;64.70
20568;DHT22;10442;49.932;11.592;2023-06-26T01:04:11;21.20;64.90
20568;DHT22;10442;49.932;11.592;2023-06-26T01:06:49;21.20;64.60
20568;DHT22;10442;49.932;11.592;2023-06-26T01:09:19;21.20;64.80
20568;DHT22;10442;49.932;11.592;2023-06-26T01:11:46;21.10;64.80
20568;DHT22;10442;49.932;11.592;2023-06-26T01:14:14;21.10;64.80
20568;DHT22;10442;49.932;11.592;2023-06-26T01:16:43;21.10;64.70
20568;DHT22;10442;49.932;11.592;2023-06-26T01:19:24;21.00;64.80
20568;DHT22;10442;49.932;11.592;2023-06-26T01:22:19;21.00;65.50
20568;DHT22;10442;49.932;11.592;2023-06-26T01:25:12;21.00;65.80
20568;DHT22;10442;49.932;11.592;2023-06-26T01:27:41;20.90;65.70
20568;DHT22;10442;49.932;11.592;2023-06-26T01:30:10;20.90;65.10
20568;DHT22;10442;49.932;11.592;2023-06-26T01:32:39;20.90;65.00
20568;DHT22;10442;49.932;11.592;2023-06-26T01:35:07;20.80;65.10
20568;DHT22;10442;49.932;11.592;2023-06-26T01:37:35;20.80;65.40
20568;DHT22;10442;49.932;11.592;2023-06-26T01:40:03;20.80;65.80
20568;DHT22;10442;49.932;11.592;2023-06-26T01:42:34;20.80;66.10
20568;DHT22;10442;49.932;11.592;2023-06-26T01:45:12;20.70;66.00
20568;DHT22;10442;49.932;11.592;2023-06-26T01:47:43;20.70;66.20
20568;DHT22;10442;49.932;11.592;2023-06-26T01:50:21;20.70;65.90
20568;DHT22;10442;49.932;11.592;2023-06-26T01:53:13;20.70;67.10
20568;DHT22;10442;49.932;11.592;2023-06-26T01:56:05;20.60;66.60
20568;DHT22;10442;49.932;11.592;2023-06-26T01:58:35;20.60;66.10
20568;DHT22;10442;49.932;11.592;2023-06-26T02:01:04;20.60;65.90
20568;DHT22;10442;49.932;11.592;2023-06-26T02:03:32;20.60;66.70
20568;DHT22;10442;49.932;11.592;2023-06-26T02:06:00;20.60;66.30
20568;DHT22;10442;49.932;11.592;2023-06-26T02:08:27;20.50;66.20
20568;DHT22;10442;49.932;11.592;2023-06-26T02:10:56;20.50;66.10
20568;DHT22;10442;49.932;11.592;2023-06-26T02:13:23;20.50;66.00
20568;DHT22;10442;49.932;11.592;2023-06-26T02:15:51;20.40;65.80
20568;DHT22;10442;49.932;11.592;2023-06-26T02:18:18;20.40;66.20
20568;DHT22;10442;49.932;11.592;2023-06-26T02:20:49;20.40;66.30
20568;DHT22;10442;49.932;11.592;2023-06-26T02:23:16;20.40;66.50
20568;DHT22;10442;49.932;11.592;2023-06-26T02:25:44;20.40;66.80
20568;DHT22;10442;49.932;11.592;2023-06-26T02:28:11;20.30;67.30
20568;DHT22;10442;49.932;11.592;2023-06-26T02:30:39;20.30;68.10
20568;DHT22;10442;49.932;11.592;2023-06-26T02:33:07;20.30;67.30
20568;DHT22;10442;49.932;11.592;2023-06-26T02:35:34;20.30;67.20
20568;DHT22;10442;49.932;11.592;2023-06-26T02:38:02;20.20;67.10
20568;DHT22;10442;49.932;11.592;2023-06-26T02:40:29;20.20;66.90
20568;DHT22;10442;49.932;11.592;2023-06-26T02:42:58;20.20;67.10
20568;DHT22;10442;49.932;11.592;2023-06-26T02:45:25;20.20;67.20
20568;DHT22;10442;49.932;11.592;2023-06-26T02:47:53;20.20;67.10
20568;DHT22;10442;49.932;11.592;2023-06-26T02:50:20;20.10;67.00
20568;DHT22;10442;49.932;11.592;2023-06-26T02:53:20;20.10;67.00
20568;DHT22;10442;49.932;11.592;2023-06-26T02:55:48;20.10;67.00
20568;DHT22;10442;49.932;11.592;2023-06-26T02:58:17;20.10;67.30
20568;DHT22;10442;49.932;11.592;2023-06-26T03:00:44;20.10;67.30
20568;DHT22;10442;49.932;11.592;2023-06-26T03:03:15;20.10;67.30
20568;DHT22;10442;49.932;11.592;2023-06-26T03:05:43;20.00;67.20
20568;DHT22;10442;49.932;11.592;2023-06-26T03:08:10;20.00;67.10
20568;DHT22;10442;49.932;11.592;2023-06-26T03:10:38;20.00;67.10
20568;DHT22;10442;49.932;11.592;2023-06-26T03:13:06;20.00;67.00
20568;DHT22;10442;49.932;11.592;2023-06-26T03:15:33;20.00;67.00
20568;DHT22;10442;49.932;11.592;2023-06-26T03:18:01;20.00;67.00
20568;DHT22;10442;49.932;11.592;2023-06-26T03:20:29;20.00;67.10
20568;DHT22;10442;49.932;11.592;2023-06-26T03:22:58;20.00;67.10
20568;DHT22;10442;49.932;11.592;2023-06-26T03:25:26;19.90;67.20
20568;DHT22;10442;49.932;11.592;2023-06-26T03:28:07;19.90;67.50
20568;DHT22;10442;49.932;11.592;2023-06-26T03:30:35;19.90;67.70
20568;DHT22;10442;49.932;11.592;2023-06-26T03:33:05;19.90;67.80
20568;DHT22;10442;49.932;11.592;2023-06-26T03:35:32;19.90;68.00
20568;DHT22;10442;49.932;11.592;2023-06-26T03:38:01;19.90;67.80
20568;DHT22;10442;49.932;11.592;2023-06-26T03:40:29;19.90;67.90
20568;DHT22;10442;49.932;11.592;2023-06-26T03:42:56;19.90;67.90
20568;DHT22;10442;49.932;11.592;2023-06-26T03:45:24;19.90;68.20
20568;DHT22;10442;49.932;11.592;2023-06-26T03:47:52;20.00;68.20
20568;DHT22;10442;49.932;11.592;2023-06-26T03:50:19;20.00;68.20
20568;DHT22;10442;49.932;11.592;2023-06-26T03:52:47;20.00;68.00
20568;DHT22;10442;49.932;11.592;2023-06-26T03:55:14;20.00;67.90
20568;DHT22;10442;49.932;11.592;2023-06-26T03:57:45;20.10;68.10
20568;DHT22;10442;49.932;11.592;2023-06-26T04:00:14;20.10;67.90
20568;DHT22;10442;49.932;11.592;2023-06-26T04:02:41;20.10;68.00
20568;DHT22;10442;49.932;11.592;2023-06-26T04:05:11;20.20;68.10
20568;DHT22;10442;49.932;11.592;2023-06-26T04:07:39;20.20;68.20
20568;DHT22;10442;49.932;11.592;2023-06-26T04:10:07;20.30;68.00
20568;DHT22;10442;49.932;11.592;2023-06-26T04:12:35;20.30;68.00
20568;DHT22;10442;49.932;11.592;2023-06-26T04:15:02;20.40;67.50
20568;DHT22;10442;49.932;11.592;2023-06-26T04:17:30;20.50;67.40
20568;DHT22;10442;49.932;11.592;2023-06-26T04:19:57;20.50;67.10
20568;DHT22;10442;49.932;11.592;2023-06-26T04:22:25;20.60;66.90
20568;DHT22;10442;49.932;11.592;2023-06-26T04:24:53;20.70;66.90
20568;DHT22;10442;49.932;11.592;2023-06-26T04:27:20;20.80;66.90
20568;DHT22;10442;49.932;11.592;2023-06-26T04:29:49;20.90;66.80
20568;DHT22;10442;49.932;11.592;2023-06-26T04:32:16;21.10;66.80
20568;DHT22;10442;49.932;11.592;2023-06-26T04:34:44;21.20;66.50
20568;DHT22;10442;49.932;11.592;2023-06-26T04:37:11;21.40;66.40
20568;DHT22;10442;49.932;11.592;2023-06-26T04:39:43;21.50;66.10
20568;DHT22;10442;49.932;11.592;2023-06-26T04:42:11;21.60;65.70
20568;DHT22;10442;49.932;11.592;2023-06-26T04:44:39;21.80;65.80
20568;DHT22;10442;49.932;11.592;2023-06-26T04:47:08;22.00;65.40
20568;DHT22;10442;49.932;11.592;2023-06-26T04:49:36;22.20;64.90
20568;DHT22;10442;49.932;11.592;2023-06-26T04:52:05;22.50;64.30
20568;DHT22;10442;49.932;11.592;2023-06-26T04:54:34;22.70;63.80
20568;DHT22;10442;49.932;11.592;2023-06-26T04:57:01;22.90;63.00
20568;DHT22;10442;49.932;11.592;2023-06-26T04:59:29;23.10;62.80
20568;DHT22;10442;49.932;11.592;2023-06-26T05:01:56;23.30;62.70
20568;DHT22;10442;49.932;11.592;2023-06-26T05:04:24;23.60;62.20
20568;DHT22;10442;49.932;11.592;2023-06-26T05:06:51;24.00;61.50
20568;DHT22;10442;49.932;11.592;2023-06-26T05:09:19;24.40;60.90
20568;DHT22;10442;49.932;11.592;2023-06-26T05:11:46;24.80;59.30
20568;DHT22;10442;49.932;11.592;2023-06-26T05:14:14;25.20;58.70
20568;DHT22;10442;49.932;11.592;2023-06-26T05:16:41;25.50;58.00
20568;DHT22;10442;49.932;11.592;2023-06-26T05:19:09;25.80;57.60
20568;DHT22;10442;49.932;11.592;2023-06-26T05:21:36;26.00;56.70
20568;DHT22;10442;49.932;11.592;2023-06-26T05:24:05;26.40;56.50
20568;DHT22;10442;49.932;11.592;2023-06-26T05:26:33;26.70;55.60
20568;DHT22;10442;49.932;11.592;2023-06-26T05:29:01;26.90;55.00
20568;DHT22;10442;49.932;11.592;2023-06-26T05:31:31;27.10;54.20
20568;DHT22;10442;49.932;11.592;2023-06-26T05:34:03;27.20;53.30
20568;DHT22;10442;49.932;11.592;2023-06-26T05:36:33;27.20;53.00
20568;DHT22;10442;49.932;11.592;2023-06-26T05:39:01;27.30;52.40
20568;DHT22;10442;49.932;11.592;2023-06-26T05:41:30;27.30;52.50
20568;DHT22;10442;49.932;11.592;2023-06-26T05:43:57;27.30;51.60
20568;DHT22;10442;49.932;11.592;2023-06-26T05:46:25;27.30;52.00
20568;DHT22;10442;49.932;11.592;2023-06-26T05:48:52;27.40;51.90
20568;DHT22;10442;49.932;11.592;2023-06-26T05:51:20;27.40;51.70
20568;DHT22;10442;49.932;11.592;2023-06-26T05:53:48;27.50;52.10
20568;DHT22;10442;49.932;11.592;2023-06-26T05:56:16;27.80;52.00
20568;DHT22;10442;49.932;11.592;2023-06-26T05:58:46;28.10;51.70
20568;DHT22;10442;49.932;11.592;2023-06-26T06:01:13;28.50;51.00
20568;DHT22;10442;49.932;11.592;2023-06-26T06:03:41;28.90;50.70
20568;DHT22;10442;49.932;11.592;2023-06-26T06:06:08;29.30;49.80
20568;DHT22;10442;49.932;11.592;2023-06-26T06:08:36;29.70;49.20
20568;DHT22;10442;49.932;11.592;2023-06-26T06:11:03;30.30;49.10
20568;DHT22;10442;49.932;11.592;2023-06-26T06:13:31;30.90;47.50
20568;DHT22;10442;49.932;11.592;2023-06-26T06:15:58;31.50;45.80
20568;DHT22;10442;49.932;11.592;2023-06-26T06:18:26;32.20;45.70
20568;DHT22;10442;49.932;11.592;2023-06-26T06:20:53;32.70;43.70
20568;DHT22;10442;49.932;11.592;2023-06-26T06:23:21;33.20;41.50
20568;DHT22;10442;49.932;11.592;2023-06-26T06:25:49;33.60;41.10
20568;DHT22;10442;49.932;11.592;2023-06-26T06:28:16;34.00;41.10
20568;DHT22;10442;49.932;11.592;2023-06-26T06:30:44;34.30;39.60
20568;DHT22;10442;49.932;11.592;2023-06-26T06:33:13;34.60;39.70
20568;DHT22;10442;49.932;11.592;2023-06-26T06:35:42;34.90;39.40
20568;DHT22;10442;49.932;11.592;2023-06-26T06:38:10;35.20;38.90
20568;DHT22;10442;49.932;11.592;2023-06-26T06:40:37;35.50;38.80
20568;DHT22;10442;49.932;11.592;2023-06-26T06:43:05;35.90;38.60
20568;DHT22;10442;49.932;11.592;2023-06-26T06:45:33;36.20;37.20
20568;DHT22;10442;49.932;11.592;2023-06-26T06:48:00;36.50;37.10
20568;DHT22;10442;49.932;11.592;2023-06-26T06:50:28;36.70;36.70
20568;DHT22;10442;49.932;11.592;2023-06-26T06:52:56;37.10;36.90
20568;DHT22;10442;49.932;11.592;2023-06-26T06:55:24;37.40;35.90
20568;DHT22;10442;49.932;11.592;2023-06-26T06:57:53;37.70;35.30
20568;DHT22;10442;49.932;11.592;2023-06-26T07:00:20;37.90;33.30
20568;DHT22;10442;49.932;11.592;2023-06-26T07:02:47;38.00;33.60
20568;DHT22;10442;49.932;11.592;2023-06-26T07:05:16;38.10;33.60
20568;DHT22;10442;49.932;11.592;2023-06-26T07:07:43;38.10;33.40
20568;DHT22;10442;49.932;11.592;2023-06-26T07:10:12;38.20;33.10
20568;DHT22;10442;49.932;11.592;2023-06-26T07:12:40;38.20;33.00
20568;DHT22;10442;49.932;11.592;2023-06-26T07:15:08;38.20;32.90
20568;DHT22;10442;49.932;11.592;2023-06-26T07:17:35;38.20;33.10
20568;DHT22;10442;49.932;11.592;2023-06-26T07:20:05;38.20;32.30
20568;DHT22;10442;49.932;11.592;2023-06-26T07:22:37;38.30;32.60
20568;DHT22;10442;49.932;11.592;2023-06-26T07:25:05;38.40;32.10
20568;DHT22;10442;49.932;11.592;2023-06-26T07:27:37;38.50;31.90
20568;DHT22;10442;49.932;11.592;2023-06-26T07:30:06;38.50;31.70
20568;DHT22;10442;49.932;11.592;2023-06-26T07:32:36;38.60;31.40
20568;DHT22;10442;49.932;11.592;2023-06-26T07:35:04;38.60;31.10
20568;DHT22;10442;49.932;11.592;2023-06-26T07:37:32;38.60;32.00
20568;DHT22;10442;49.932;11.592;2023-06-26T07:39:59;38.70;31.20
20568;DHT22;10442;49.932;11.592;2023-06-26T07:42:27;38.70;31.00
20568;DHT22;10442;49.932;11.592;2023-06-26T07:44:54;38.80;31.60
20568;DHT22;10442;49.932;11.592;2023-06-26T07:47:22;38.90;31.40
20568;DHT22;10442;49.932;11.592;2023-06-26T07:49:50;39.00;31.10
20568;DHT22;10442;49.932;11.592;2023-06-26T07:52:18;39.00;31.50
20568;DHT22;10442;49.932;11.592;2023-06-26T07:54:46;39.20;30.60
20568;DHT22;10442;49.932;11.592;2023-06-26T07:57:14;39.20;30.60
20568;DHT22;10442;49.932;11.592;2023-06-26T07:59:43;39.30;30.30
20568;DHT22;10442;49.932;11.592;2023-06-26T08:02:10;39.40;30.50
20568;DHT22;10442;49.932;11.592;2023-06-26T08:04:38;39.60;30.20
20568;DHT22;10442;49.932;11.592;2023-06-26T08:07:05;39.80;30.10
20568;DHT22;10442;49.932;11.592;2023-06-26T08:09:35;40.10;30.00
20568;DHT22;10442;49.932;11.592;2023-06-26T08:12:02;40.50;29.80
20568;DHT22;10442;49.932;11.592;2023-06-26T08:14:30;40.80;29.10
20568;DHT22;10442;49.932;11.592;2023-06-26T08:16:58;41.00;28.70
20568;DHT22;10442;49.932;11.592;2023-06-26T08:19:27;41.30;28.50
20568;DHT22;10442;49.932;11.592;2023-06-26T08:21:54;41.60;28.10
20568;DHT22;10442;49.932;11.592;2023-06-26T08:24:21;41.90;27.20
20568;DHT22;10442;49.932;11.592;2023-06-26T08:26:49;42.10;26.30
20568;DHT22;10442;49.932;11.592;2023-06-26T08:29:16;42.40;26.20
20568;DHT22;10442;49.932;11.592;2023-06-26T08:31:44;42.60;25.70
20568;DHT22;10442;49.932;11.592;2023-06-26T08:34:12;42.80;25.40
20568;DHT22;10442;49.932;11.592;2023-06-26T08:36:39;43.00;25.40
20568;DHT22;10442;49.932;11.592;2023-06-26T08:39:07;43.10;23.90
20568;DHT22;10442;49.932;11.592;2023-06-26T08:41:36;43.00;24.20
20568;DHT22;10442;49.932;11.592;2023-06-26T08:44:04;43.00;24.20
20568;DHT22;10442;49.932;11.592;2023-06-26T08:46:32;43.00;24.20
20568;DHT22;10442;49.932;11.592;2023-06-26T08:49:05;43.00;24.40
20568;DHT22;10442;49.932;11.592;2023-06-26T08:51:37;43.20;24.40
20568;DHT22;10442;49.932;11.592;2023-06-26T08:54:09;43.40;24.60
20568;DHT22;10442;49.932;11.592;2023-06-26T08:56:44;43.50;24.10
20568;DHT22;10442;49.932;11.592;2023-06-26T08:59:12;43.60;23.60
20568;DHT22;10442;49.932;11.592;2023-06-26T09:01:41;43.70;23.20
20568;DHT22;10442;49.932;11.592;2023-06-26T09:04:09;43.70;23.40
20568;DHT22;10442;49.932;11.592;2023-06-26T09:06:37;43.70;23.20
20568;DHT22;10442;49.932;11.592;2023-06-26T09:09:04;43.80;23.50
20568;DHT22;10442;49.932;11.592;2023-06-26T09:11:32;43.80;23.00
20568;DHT22;10442;49.932;11.592;2023-06-26T09:14:00;43.90;22.90
20568;DHT22;10442;49.932;11.592;2023-06-26T09:16:28;43.90;23.00
20568;DHT22;10442;49.932;11.592;2023-06-26T09:18:56;43.90;22.80
20568;DHT22;10442;49.932;11.592;2023-06-26T09:21:24;43.90;22.50
20568;DHT22;10442;49.932;11.592;2023-06-26T09:23:52;43.90;22.70
20568;DHT22;10442;49.932;11.592;2023-06-26T09:26:21;44.00;23.00
20568;DHT22;10442;49.932;11.592;2023-06-26T09:28:49;44.00;23.00
20568;DHT22;10442;49.932;11.592;2023-06-26T09:31:17;44.10;22.50
20568;DHT22;10442;49.932;11.592;2023-06-26T09:34:07;44.10;22.50
20568;DHT22;10442;49.932;11.592;2023-06-26T09:36:35;44.20;22.40
20568;DHT22;10442;49.932;11.592;2023-06-26T09:39:08;44.00;22.20
20568;DHT22;10442;49.932;11.592;2023-06-26T09:41:41;43.90;21.80
20568;DHT22;10442;49.932;11.592;2023-06-26T09:44:11;43.80;22.10
20568;DHT22;10442;49.932;11.592;2023-06-26T09:46:40;43.70;22.10
20568;DHT22;10442;49.932;11.592;2023-06-26T09:49:09;43.60;22.50
20568;DHT22;10442;49.932;11.592;2023-06-26T09:51:41;43.50;22.20
20568;DHT22;10442;49.932;11.592;2023-06-26T09:54:09;43.30;22.50
20568;DHT22;10442;49.932;11.592;2023-06-26T09:56:37;43.20;22.40
20568;DHT22;10442;49.932;11.592;2023-06-26T09:59:05;43.00;22.40
20568;DHT22;10442;49.932;11.592;2023-06-26T10:01:33;42.70;22.10
20568;DHT22;10442;49.932;11.592;2023-06-26T10:04:01;42.40;22.50
20568;DHT22;10442;49.932;11.592;2023-06-26T10:06:36;42.00;22.90
20568;DHT22;10442;49.932;11.592;2023-06-26T10:09:04;41.70;23.30
20568;DHT22;10442;49.932;11.592;2023-06-26T10:11:46;41.40;23.40
20568;DHT22;10442;49.932;11.592;2023-06-26T10:14:14;41.10;23.40
20568;DHT22;10442;49.932;11.592;2023-06-26T10:16:46;40.70;23.80
20568;DHT22;10442;49.932;11.592;2023-06-26T10:19:17;40.40;24.30
20568;DHT22;10442;49.932;11.592;2023-06-26T10:21:48;40.00;24.20
20568;DHT22;10442;49.932;11.592;2023-06-26T10:24:17;39.60;24.30
20568;DHT22;10442;49.932;11.592;2023-06-26T10:26:46;39.30;24.20
20568;DHT22;10442;49.932;11.592;2023-06-26T10:29:17;39.00;24.30
20568;DHT22;10442;49.932;11.592;2023-06-26T10:31:51;38.70;24.70
20568;DHT22;10442;49.932;11.592;2023-06-26T10:34:20;38.50;25.20
20568;DHT22;10442;49.932;11.592;2023-06-26T10:36:48;38.30;25.20
20568;DHT22;10442;49.932;11.592;2023-06-26T10:39:25;38.10;25.70
20568;DHT22;10442;49.932;11.592;2023-06-26T10:42:08;38.00;25.80
20568;DHT22;10442;49.932;11.592;2023-06-26T10:44:40;37.80;26.00
20568;DHT22;10442;49.932;11.592;2023-06-26T10:47:10;37.80;26.00
20568;DHT22;10442;49.932;11.592;2023-06-26T10:49:38;37.80;25.90
20568;DHT22;10442;49.932;11.592;2023-06-26T10:52:07;37.70;26.10
20568;DHT22;10442;49.932;11.592;2023-06-26T10:54:35;37.70;26.10
20568;DHT22;10442;49.932;11.592;2023-06-26T10:57:07;37.70;26.40
20568;DHT22;10442;49.932;11.592;2023-06-26T10:59:34;37.70;26.40
20568;DHT22;10442;49.932;11.592;2023-06-26T11:02:06;37.70;25.90
20568;DHT22;10442;49.932;11.592;2023-06-26T11:04:44;37.70;26.00
20568;DHT22;10442;49.932;11.592;2023-06-26T11:07:25;37.60;25.60
20568;DHT22;10442;49.932;11.592;2023-06-26T11:10:02;37.50;26.20
20568;DHT22;10442;49.932;11.592;2023-06-26T11:12:43;37.50;26.00
20568;DHT22;10442;49.932;11.592;2023-06-26T11:15:15;37.50;26.00
20568;DHT22;10442;49.932;11.592;2023-06-26T11:17:44;37.40;26.10
20568;DHT22;10442;49.932;11.592;2023-06-26T11:20:13;37.40;26.00
20568;DHT22;10442;49.932;11.592;2023-06-26T11:22:42;37.40;25.50
20568;DHT22;10442;49.932;11.592;2023-06-26T11:25:10;37.30;25.80
20568;DHT22;10442;49.932;11.592;2023-06-26T11:30:07;37.30;25.90
20568;DHT22;10442;49.932;11.592;2023-06-26T11:32:36;37.30;25.70
20568;DHT22;10442;49.932;11.592;2023-06-26T11:35:05;37.20;26.00
20568;DHT22;10442;49.932;11.592;2023-06-26T11:37:33;37.10;25.90
20568;DHT22;10442;49.932;11.592;2023-06-26T11:40:16;37.10;26.70
20568;DHT22;10442;49.932;11.592;2023-06-26T11:42:44;37.10;26.30
20568;DHT22;10442;49.932;11.592;2023-06-26T11:45:12;37.00;26.00
20568;DHT22;10442;49.932;11.592;2023-06-26T11:47:40;37.00;26.60
20568;DHT22;10442;49.932;11.592;2023-06-26T11:50:15;37.00;26.70
20568;DHT22;10442;49.932;11.592;2023-06-26T11:52:44;37.00;26.90
20568;DHT22;10442;49.932;11.592;2023-06-26T11:55:12;37.00;27.40
20568;DHT22;10442;49.932;11.592;2023-06-26T11:57:40;37.00;26.60
20568;DHT22;10442;49.932;11.592;2023-06-26T12:00:15;37.00;26.60
20568;DHT22;10442;49.932;11.592;2023-06-26T12:02:45;37.00;25.90
20568;DHT22;10442;49.932;11.592;2023-06-26T12:05:17;36.90;26.00
20568;DHT22;10442;49.932;11.592;2023-06-26T12:07:47;36.80;26.10
20568;DHT22;10442;49.932;11.592;2023-06-26T12:10:15;36.80;26.20
20568;DHT22;10442;49.932;11.592;2023-06-26T12:12:45;36.70;26.50
20568;DHT22;10442;49.932;11.592;2023-06-26T12:15:14;36.70;26.70
20568;DHT22;10442;49.932;11.592;2023-06-26T12:17:42;36.70;27.00
20568;DHT22;10442;49.932;11.592;2023-06-26T12:20:21;36.70;26.90
20568;DHT22;10442;49.932;11.592;2023-06-26T12:22:49;36.80;27.40
20568;DHT22;10442;49.932;11.592;2023-06-26T12:25:23;36.90;27.10
20568;DHT22;10442;49.932;11.592;2023-06-26T12:27:51;36.90;26.70
20568;DHT22;10442;49.932;11.592;2023-06-26T12:30:19;36.90;26.50
20568;DHT22;10442;49.932;11.592;2023-06-26T12:32:46;36.90;26.60
20568;DHT22;10442;49.932;11.592;2023-06-26T12:35:14;36.90;26.70
20568;DHT22;10442;49.932;11.592;2023-06-26T12:37:43;36.90;26.80
20568;DHT22;10442;49.932;11.592;2023-06-26T12:40:17;36.90;27.00
20568;DHT22;10442;49.932;11.592;2023-06-26T12:42:45;36.80;27.40
20568;DHT22;10442;49.932;11.592;2023-06-26T12:45:14;36.70;26.90
20568;DHT22;10442;49.932;11.592;2023-06-26T12:48:12;36.70;27.20
20568;DHT22;10442;49.932;11.592;2023-06-26T12:50:44;36.70;27.20
20568;DHT22;10442;49.932;11.592;2023-06-26T12:53:12;36.70;27.20
20568;DHT22;10442;49.932;11.592;2023-06-26T12:55:41;36.70;26.90
20568;DHT22;10442;49.932;11.592;2023-06-26T12:58:09;36.70;27.50
20568;DHT22;10442;49.932;11.592;2023-06-26T13:00:39;36.70;27.50
20568;DHT22;10442;49.932;11.592;2023-06-26T13:03:09;36.70;27.20
20568;DHT22;10442;49.932;11.592;2023-06-26T13:05:38;36.70;26.60
20568;DHT22;10442;49.932;11.592;2023-06-26T13:08:05;36.70;26.00
20568;DHT22;10442;49.932;11.592;2023-06-26T13:10:34;36.60;26.60
20568;DHT22;10442;49.932;11.592;2023-06-26T13:13:03;36.60;26.40
20568;DHT22;10442;49.932;11.592;2023-06-26T13:15:30;36.60;26.70
20568;DHT22;10442;49.932;11.592;2023-06-26T13:17:58;36.60;26.50
20568;DHT22;10442;49.932;11.592;2023-06-26T13:20:25;36.60;26.50
20568;DHT22;10442;49.932;11.592;2023-06-26T13:22:53;36.60;25.90
20568;DHT22;10442;49.932;11.592;2023-06-26T13:25:21;36.60;26.40
20568;DHT22;10442;49.932;11.592;2023-06-26T13:27:49;36.60;26.60
20568;DHT22;10442;49.932;11.592;2023-06-26T13:30:16;36.50;26.30
20568;DHT22;10442;49.932;11.592;2023-06-26T13:32:44;36.50;26.40
20568;DHT22;10442;49.932;11.592;2023-06-26T13:35:13;36.60;26.80
20568;DHT22;10442;49.932;11.592;2023-06-26T13:37:41;36.50;26.40
20568;DHT22;10442;49.932;11.592;2023-06-26T13:40:10;36.50;26.80
20568;DHT22;10442;49.932;11.592;2023-06-26T13:42:38;36.50;27.20
20568;DHT22;10442;49.932;11.592;2023-06-26T13:45:06;36.40;27.30
20568;DHT22;10442;49.932;11.592;2023-06-26T13:47:45;36.40;27.10
20568;DHT22;10442;49.932;11.592;2023-06-26T13:50:12;36.40;26.70
20568;DHT22;10442;49.932;11.592;2023-06-26T13:52:40;36.30;26.60
20568;DHT22;10442;49.932;11.592;2023-06-26T13:55:07;36.30;27.10
20568;DHT22;10442;49.932;11.592;2023-06-26T13:57:35;36.30;27.10
20568;DHT22;10442;49.932;11.592;2023-06-26T14:00:09;36.20;27.20
20568;DHT22;10442;49.932;11.592;2023-06-26T14:02:39;36.20;27.50
20568;DHT22;10442;49.932;11.592;2023-06-26T14:05:07;36.10;27.40
20568;DHT22;10442;49.932;11.592;2023-06-26T14:07:34;36.10;27.50
20568;DHT22;10442;49.932;11.592;2023-06-26T14:10:02;36.10;27.80
20568;DHT22;10442;49.932;11.592;2023-06-26T14:12:30;36.10;27.80
20568;DHT22;10442;49.932;11.592;2023-06-26T14:14:59;36.00;27.60
20568;DHT22;10442;49.932;11.592;2023-06-26T14:17:26;36.00;27.60
20568;DHT22;10442;49.932;11.592;2023-06-26T14:19:54;35.90;28.00
20568;DHT22;10442;49.932;11.592;2023-06-26T14:22:21;35.80;28.10
20568;DHT22;10442;49.932;11.592;2023-06-26T14:24:49;35.80;28.10
20568;DHT22;10442;49.932;11.592;2023-06-26T14:27:17;35.90;28.20
20568;DHT22;10442;49.932;11.592;2023-06-26T14:29:44;35.90;28.50
20568;DHT22;10442;49.932;11.592;2023-06-26T14:32:11;35.90;28.20
20568;DHT22;10442;49.932;11.592;2023-06-26T14:34:39;35.90;28.30
20568;DHT22;10442;49.932;11.592;2023-06-26T14:37:07;35.80;28.60
20568;DHT22;10442;49.932;11.592;2023-06-26T14:39:35;35.80;28.50
20568;DHT22;10442;49.932;11.592;2023-06-26T14:42:03;35.70;28.80
20568;DHT22;10442;49.932;11.592;2023-06-26T14:44:31;35.70;29.10
20568;DHT22;10442;49.932;11.592;2023-06-26T14:46:59;35.70;28.90
20568;DHT22;10442;49.932;11.592;2023-06-26T14:49:27;35.60;29.00
20568;DHT22;10442;49.932;11.592;2023-06-26T14:51:54;35.60;29.00
20568;DHT22;10442;49.932;11.592;2023-06-26T14:54:22;35.60;29.00
20568;DHT22;10442;49.932;11.592;2023-06-26T14:56:50;35.60;29.60
20568;DHT22;10442;49.932;11.592;2023-06-26T14:59:17;35.50;29.50
20568;DHT22;10442;49.932;11.592;2023-06-26T15:01:45;35.60;29.70
20568;DHT22;10442;49.932;11.592;2023-06-26T15:04:12;35.50;29.80
20568;DHT22;10442;49.932;11.592;2023-06-26T15:06:40;35.50;29.80
20568;DHT22;10442;49.932;11.592;2023-06-26T15:09:08;35.40;29.70
20568;DHT22;10442;49.932;11.592;2023-06-26T15:11:36;35.30;29.70
20568;DHT22;10442;49.932;11.592;2023-06-26T15:14:04;35.20;30.20
20568;DHT22;10442;49.932;11.592;2023-06-26T15:16:31;35.10;30.40
20568;DHT22;10442;49.932;11.592;2023-06-26T15:18:59;35.00;30.20
20568;DHT22;10442;49.932;11.592;2023-06-26T15:21:26;34.80;30.50
20568;DHT22;10442;49.932;11.592;2023-06-26T15:23:54;34.80;30.90
20568;DHT22;10442;49.932;11.592;2023-06-26T15:26:21;34.70;31.20
20568;DHT22;10442;49.932;11.592;2023-06-26T15:28:49;34.60;31.50